Time;durP1;ratioP1;P1;durP2;ratioP2;P2;SDS_P1;SDS_P2;PMS_P1;PMS_P2;Temp;Humidity;BMP_temperature;BMP_pressure;BME280_temperature;BME280_humidity;BME280_pressure;Samples;Min_cycle;Max_cycle;Signal;HPM_P1;HPM_P2
2023/07/14 00:00:32;;;;;;;4.28;1.65;;;;;;;22.17;46.93;100800.56;4165827;28;20041;-68
2023/07/14 00:02:35;;;;;;;6.78;1.73;;;;;;;22.08;47.88;100807.84;4165731;28;20043;-69
2023/07/14 00:04:41;;;;;;;6.30;2.08;;;;;;;22.07;48.08;100805.22;4163605;28;20503;-69
2023/07/14 00:07:04;;;;;;;2.38;1.40;;;;;;;22.04;48.07;100802.66;4165668;28;20091;-69
2023/07/14 00:09:28;;;;;;;8.93;1.98;;;;;;;22.16;47.73;100806.75;4164738;28;20092;-68
2023/07/14 00:11:50;;;;;;;4.05;1.42;;;;;;;22.02;47.29;100799.19;4164602;28;20095;-69
2023/07/14 00:14:11;;;;;;;4.75;1.33;;;;;;;21.87;47.69;100803.13;4164841;28;20044;-69
2023/07/14 00:16:30;;;;;;;5.63;1.70;;;;;;;21.80;47.77;100799.78;4165577;28;20069;-69
2023/07/14 00:18:35;;;;;;;4.88;2.08;;;;;;;21.81;48.25;100801.50;4164185;28;20045;-69
2023/07/14 00:20:39;;;;;;;3.08;1.35;;;;;;;21.72;48.10;100799.97;4180951;28;20041;-69
2023/07/14 00:22:41;;;;;;;11.32;1.80;;;;;;;21.62;47.91;100806.44;4165334;28;20044;-69
2023/07/14 00:24:44;;;;;;;6.35;1.55;;;;;;;21.61;47.78;100799.38;4163241;28;20511;-69
2023/07/14 00:26:50;;;;;;;5.70;1.58;;;;;;;21.63;47.62;100796.72;4165262;28;20557;-69
2023/07/14 00:28:54;;;;;;;5.65;1.70;;;;;;;21.65;47.50;100790.47;4165237;28;20040;-69
2023/07/14 00:30:57;;;;;;;6.53;1.75;;;;;;;21.67;47.32;100785.13;4164028;28;20042;-69
2023/07/14 00:32:59;;;;;;;5.43;1.63;;;;;;;21.61;47.42;100794.09;4164029;28;20038;-69
2023/07/14 00:35:20;;;;;;;5.82;1.42;;;;;;;21.64;47.42;100782.56;4146962;28;20447;-69
2023/07/14 00:37:23;;;;;;;6.32;1.70;;;;;;;21.65;47.69;100789.59;4164000;28;20077;-69
2023/07/14 00:39:26;;;;;;;5.13;1.52;;;;;;;21.63;48.03;100786.16;4163920;28;20037;-69
2023/07/14 00:41:29;;;;;;;5.20;1.90;;;;;;;21.61;48.24;100794.09;4165090;28;20046;-69
2023/07/14 00:43:31;;;;;;;3.95;1.40;;;;;;;21.51;48.31;100788.19;4163758;28;20052;-69
2023/07/14 00:45:36;;;;;;;10.65;2.00;;;;;;;21.48;48.57;100793.53;4163151;28;20057;-69
2023/07/14 00:47:39;;;;;;;3.38;1.50;;;;;;;21.39;48.67;100791.09;4164997;28;20124;-69
2023/07/14 00:49:42;;;;;;;5.05;1.42;;;;;;;21.38;48.80;100800.84;4163821;28;20055;-69
2023/07/14 00:51:47;;;;;;;4.65;1.50;;;;;;;21.37;48.53;100795.59;4165176;28;20045;-69
2023/07/14 00:53:51;;;;;;;6.13;1.77;;;;;;;21.31;48.72;100795.75;4163060;28;20132;-69
2023/07/14 00:55:59;;;;;;;3.67;1.40;;;;;;;21.30;48.36;100800.16;4163738;28;20065;-69
2023/07/14 00:58:03;;;;;;;2.95;1.40;;;;;;;21.26;48.81;100788.78;4163739;28;20097;-69
2023/07/14 01:00:21;;;;;;;3.47;1.45;;;;;;;21.26;49.51;100801.13;4147242;28;20053;-69
2023/07/14 01:02:25;;;;;;;8.38;1.58;;;;;;;21.24;49.59;100792.38;4164814;28;20522;-69
2023/07/14 01:04:27;;;;;;;3.47;1.55;;;;;;;21.28;50.05;100797.53;4162722;28;20107;-69
2023/07/14 01:06:34;;;;;;;5.63;1.50;;;;;;;21.29;50.41;100793.13;4163485;28;20041;-69
2023/07/14 01:08:43;;;;;;;5.30;1.30;;;;;;;21.31;50.65;100786.03;4163498;28;20127;-68
2023/07/14 01:10:47;;;;;;;6.72;1.50;;;;;;;21.32;50.63;100786.88;4147220;28;20502;-69
2023/07/14 01:12:54;;;;;;;2.45;1.45;;;;;;;21.25;50.30;100778.25;4163382;28;20042;-69
2023/07/14 01:14:58;;;;;;;5.80;2.00;;;;;;;21.23;50.27;100778.28;4162817;28;20052;-69
2023/07/14 01:17:03;;;;;;;;;;;;;;;21.14;50.66;100781.16;4163891;28;20057;-69
2023/07/14 01:19:15;;;;;;;3.53;1.65;;;;;;;21.16;50.94;100782.00;4179538;28;20364;-69
2023/07/14 01:21:21;;;;;;;3.83;1.80;;;;;;;21.18;51.20;100774.88;4163390;28;20037;-68
2023/07/14 01:23:39;;;;;;;4.80;2.08;;;;;;;21.18;51.12;100774.03;4163093;28;20139;-68
2023/07/14 01:26:08;;;;;;;3.22;1.42;;;;;;;21.13;51.22;100776.78;4163312;28;20041;-68
2023/07/14 01:28:16;;;;;;;3.17;1.52;;;;;;;21.10;51.30;100776.88;4163306;28;20056;-68
2023/07/14 01:30:20;;;;;;;4.50;1.30;;;;;;;21.10;51.66;100782.16;4163217;28;20129;-68
2023/07/14 01:32:25;;;;;;;5.70;1.25;;;;;;;21.10;51.77;100777.72;4146752;28;20112;-68
2023/07/14 01:34:28;;;;;;;6.38;2.08;;;;;;;21.07;52.15;100769.88;4146087;28;20091;-68
2023/07/14 01:36:32;;;;;;;3.45;1.75;;;;;;;21.08;52.00;100776.91;4164597;28;20045;-68
2023/07/14 01:38:35;;;;;;;4.78;1.40;;;;;;;21.09;52.11;100780.41;4163211;28;20080;-68
2023/07/14 01:40:38;;;;;;;6.07;1.63;;;;;;;21.09;51.88;100783.03;4163041;28;20100;-68
2023/07/14 01:42:43;;;;;;;4.60;2.03;;;;;;;21.04;51.94;100779.63;4162992;28;20493;-68
2023/07/14 01:44:49;;;;;;;3.85;1.70;;;;;;;20.97;51.66;100783.31;4162399;28;20469;-68
2023/07/14 01:46:53;;;;;;;4.20;1.80;;;;;;;20.93;51.57;100788.69;4163106;28;20037;-68
2023/07/14 01:49:12;;;;;;;2.58;1.40;;;;;;;20.89;51.85;100779.09;4146668;28;20049;-68
2023/07/14 01:51:16;;;;;;;3.40;1.52;;;;;;;20.90;52.26;100782.63;4163000;28;20041;-68
2023/07/14 01:53:22;;;;;;;;;;;;;;;20.82;52.75;100781.91;4163438;28;20069;-68
2023/07/14 01:55:31;;;;;;;4.60;1.60;;;;;;;20.85;52.89;100774.81;4162315;28;20027;-68
2023/07/14 01:57:36;;;;;;;7.25;2.17;;;;;;;20.87;52.95;100772.97;4162971;28;20522;-68
2023/07/14 01:59:42;;;;;;;3.38;1.60;;;;;;;20.89;52.75;100779.09;4146573;28;20053;-68
2023/07/14 02:01:48;;;;;;;5.75;2.03;;;;;;;20.86;52.84;100780.94;4162891;28;20037;-68
2023/07/14 02:03:55;;;;;;;2.75;1.38;;;;;;;20.77;53.10;100768.81;4162293;28;20042;-69
2023/07/14 02:05:57;;;;;;;4.60;1.45;;;;;;;20.68;53.42;100769.91;4164120;28;20263;-69
2023/07/14 02:08:03;;;;;;;3.90;2.03;;;;;;;20.60;53.84;100771.78;4162967;28;20519;-68
2023/07/14 02:10:13;;;;;;;4.45;1.80;;;;;;;20.58;53.83;100768.34;4162824;28;20044;-69
2023/07/14 02:12:26;;;;;;;5.00;1.92;;;;;;;20.49;54.21;100771.19;4162883;28;20044;-69
2023/07/14 02:14:40;;;;;;;4.10;1.52;;;;;;;20.42;54.49;100764.31;4162193;28;20543;-69
2023/07/14 02:16:44;;;;;;;5.78;1.73;;;;;;;20.35;54.47;100763.56;4163981;28;20096;-69
2023/07/14 02:18:50;;;;;;;6.15;2.10;;;;;;;20.29;54.92;100766.34;4163948;28;20035;-68
2023/07/14 02:20:54;;;;;;;5.35;2.35;;;;;;;20.28;54.71;100765.47;4164010;28;20037;-68
2023/07/14 02:23:01;;;;;;;4.03;1.70;;;;;;;20.29;54.93;100766.34;4162705;28;20456;-69
2023/07/14 02:25:07;;;;;;;8.63;1.90;;;;;;;20.30;54.31;100768.09;4161959;28;20128;-69
2023/07/14 02:27:12;;;;;;;4.80;1.58;;;;;;;20.30;54.31;100758.38;4162755;28;20519;-69
2023/07/14 02:29:45;;;;;;;4.07;1.90;;;;;;;20.27;54.22;100761.09;4162697;28;20037;-68
2023/07/14 02:31:54;;;;;;;4.53;1.88;;;;;;;20.20;54.61;100757.69;4147238;28;20054;-69
2023/07/14 02:33:59;;;;;;;4.72;2.17;;;;;;;20.21;54.64;100759.44;4148911;28;20050;-69
2023/07/14 02:38:40;;;;;;;7.28;1.60;;;;;;;20.16;54.76;100761.28;4097922;28;20044;-65
2023/07/14 02:40:47;;;;;;;9.32;2.28;;;;;;;20.17;55.05;100754.25;4085300;29;20099;-65
2023/07/14 02:42:52;;;;;;;5.05;1.70;;;;;;;20.15;55.36;100753.41;4085155;29;20480;-65
2023/07/14 02:44:54;;;;;;;3.60;1.98;;;;;;;20.07;55.43;100744.78;4069528;29;20048;-65
2023/07/14 02:47:01;;;;;;;6.82;2.25;;;;;;;20.02;55.70;100742.25;4095159;28;20114;-65
2023/07/14 02:49:06;;;;;;;4.38;2.00;;;;;;;19.99;56.07;100748.47;4084946;29;20043;-65
2023/07/14 02:51:09;;;;;;;3.67;1.70;;;;;;;19.96;55.97;100759.09;4105761;23;20035;-69
2023/07/14 02:53:12;;;;;;;4.97;1.85;;;;;;;19.93;56.40;100747.69;4102152;28;20055;-69
2023/07/14 02:55:15;;;;;;;4.72;2.00;;;;;;;19.90;56.12;100747.75;4100985;29;20095;-68
2023/07/14 02:57:18;;;;;;;6.03;2.20;;;;;;;19.91;56.20;100755.66;4101822;29;20058;-68
2023/07/14 02:59:21;;;;;;;4.65;2.13;;;;;;;19.89;56.29;100757.47;4100882;29;20043;-68
2023/07/14 03:01:25;;;;;;;7.38;2.05;;;;;;;19.86;56.08;100758.38;4100795;28;20552;-68
2023/07/14 03:03:29;;;;;;;5.50;2.15;;;;;;;19.82;56.38;100761.13;4102048;28;20500;-68
2023/07/14 03:05:33;;;;;;;7.18;2.25;;;;;;;19.82;55.96;100761.97;4100865;29;20039;-68
2023/07/14 03:07:39;;;;;;;5.22;2.00;;;;;;;19.84;56.41;100756.66;4100607;29;20079;-69
2023/07/14 03:09:42;;;;;;;8.38;2.20;;;;;;;19.85;56.49;100754.00;4100780;29;20044;-68
2023/07/14 03:11:45;;;;;;;5.18;1.80;;;;;;;19.83;56.76;100750.53;4100817;28;20039;-68
2023/07/14 03:13:48;;;;;;;4.47;1.90;;;;;;;19.75;57.38;100743.63;4100927;29;20276;-68
2023/07/14 03:15:50;;;;;;;6.65;2.33;;;;;;;19.74;57.15;100741.88;4101858;28;20046;-68
2023/07/14 03:17:53;;;;;;;3.60;1.63;;;;;;;19.71;57.31;100742.81;4101525;28;20129;-68
2023/07/14 03:19:56;;;;;;;5.95;2.00;;;;;;;19.71;57.71;100742.81;4101807;28;20047;-68
2023/07/14 03:22:00;;;;;;;4.72;2.15;;;;;;;19.67;57.27;100746.44;4084532;29;20067;-68
2023/07/14 03:24:03;;;;;;;4.82;1.95;;;;;;;19.67;57.57;100747.28;4100644;29;20075;-68
2023/07/14 03:26:08;;;;;;;4.72;1.73;;;;;;;19.62;57.28;100741.22;4100415;29;20039;-68
2023/07/14 03:28:12;;;;;;;6.03;1.88;;;;;;;19.58;57.11;100747.47;4101682;28;20043;-68
2023/07/14 03:30:15;;;;;;;6.30;2.30;;;;;;;19.63;57.05;100747.38;4100413;29;20039;-68
2023/07/14 03:32:17;;;;;;;3.15;1.50;;;;;;;19.60;57.28;100750.06;4101610;28;20047;-68
2023/07/14 03:34:22;;;;;;;9.50;2.40;;;;;;;19.55;57.00;100739.59;4100433;29;20051;-68
2023/07/14 03:36:25;;;;;;;4.70;2.00;;;;;;;19.57;57.07;100743.09;4100237;29;20094;-68
2023/07/14 03:38:29;;;;;;;6.15;2.38;;;;;;;19.62;57.11;100743.00;4084391;29;20055;-68
2023/07/14 03:40:32;;;;;;;5.40;2.47;;;;;;;19.64;56.86;100746.47;4101407;28;20130;-68
2023/07/14 03:42:35;;;;;;;4.18;1.80;;;;;;;19.65;56.58;100742.94;4099930;28;20043;-68
2023/07/14 03:44:38;;;;;;;2.40;1.48;;;;;;;19.67;56.02;100747.28;4100190;29;20050;-68
2023/07/14 03:46:41;;;;;;;7.05;2.50;;;;;;;19.67;55.91;100743.78;4083898;29;20043;-68
2023/07/14 03:48:44;;;;;;;3.78;1.52;;;;;;;19.63;55.83;100745.59;4116387;28;20051;-67
2023/07/14 03:50:47;;;;;;;7.85;2.17;;;;;;;19.59;55.75;100754.47;4084009;29;20131;-68
2023/07/14 03:52:52;;;;;;;5.55;1.70;;;;;;;19.60;55.68;100745.66;4100170;29;20043;-68
2023/07/14 03:54:56;;;;;;;6.03;1.95;;;;;;;19.60;55.96;100750.94;4100085;29;20043;-68
2023/07/14 03:56:59;;;;;;;7.15;2.33;;;;;;;19.65;55.62;100746.41;4099898;29;20122;-68
2023/07/14 03:59:02;;;;;;;4.35;2.20;;;;;;;19.68;55.78;100746.41;4100048;29;20094;-68
2023/07/14 04:01:05;;;;;;;4.32;1.83;;;;;;;19.71;55.71;100748.09;4101170;28;20047;-68
2023/07/14 04:03:08;;;;;;;5.70;2.10;;;;;;;19.74;55.56;100750.66;4100015;29;20138;-68
2023/07/14 04:05:14;;;;;;;3.78;1.60;;;;;;;19.71;56.15;100743.69;4099921;29;20047;-68
2023/07/14 04:07:16;;;;;;;7.88;2.45;;;;;;;19.72;56.48;100741.91;4083610;29;20050;-68
2023/07/14 04:09:19;;;;;;;6.65;2.10;;;;;;;19.73;56.41;100746.31;4099764;29;20047;-68
2023/07/14 04:11:23;;;;;;;3.53;1.83;;;;;;;19.73;56.42;100748.03;4100009;28;20130;-68
2023/07/14 04:13:26;;;;;;;4.53;2.30;;;;;;;19.69;56.28;100749.88;4083877;29;20043;-68
2023/07/14 04:15:29;;;;;;;4.32;2.20;;;;;;;19.67;56.73;100747.28;4115965;28;20153;-68
2023/07/14 04:17:31;;;;;;;3.63;1.95;;;;;;;19.67;56.99;100747.28;4099688;29;20492;-68
2023/07/14 04:19:34;;;;;;;5.40;2.08;;;;;;;19.69;56.70;100745.47;4100851;28;20066;-68
2023/07/14 04:21:37;;;;;;;4.55;1.70;;;;;;;19.67;56.26;100735.88;4099784;28;20086;-68
2023/07/14 04:23:40;;;;;;;6.13;1.95;;;;;;;19.67;56.04;100741.16;4100840;28;20047;-68
2023/07/14 04:25:43;;;;;;;4.53;1.90;;;;;;;19.70;56.06;100738.44;4100770;28;20050;-68
2023/07/14 04:27:46;;;;;;;9.18;2.40;;;;;;;19.73;55.92;100732.22;4100461;28;20043;-68
2023/07/14 04:29:49;;;;;;;5.25;2.00;;;;;;;19.73;56.18;100730.47;4100713;28;20043;-68
2023/07/14 04:31:52;;;;;;;6.75;1.92;;;;;;;19.77;55.50;100732.16;4099356;28;20139;-68
2023/07/14 04:33:55;;;;;;;6.00;2.13;;;;;;;19.75;55.43;100733.94;4099504;29;20309;-68
2023/07/14 04:35:58;;;;;;;5.65;2.25;;;;;;;19.71;55.36;100726.97;4099441;28;20043;-68
2023/07/14 04:38:01;;;;;;;4.75;1.65;;;;;;;19.73;55.10;100727.84;4100396;28;20043;-68
2023/07/14 04:40:06;;;;;;;4.65;1.73;;;;;;;19.73;55.61;100722.56;4100718;28;20040;-68
2023/07/14 04:42:20;;;;;;;8.95;2.20;;;;;;;19.71;55.08;100721.69;4100539;28;20523;-68
2023/07/14 04:44:26;;;;;;;4.45;1.90;;;;;;;19.71;55.00;100719.06;4100511;28;20492;-68
2023/07/14 04:46:29;;;;;;;4.18;1.95;;;;;;;19.70;55.39;100719.97;4100165;28;20050;-68
2023/07/14 04:48:32;;;;;;;5.00;2.15;;;;;;;19.71;55.20;100722.59;4100461;28;20317;-68
2023/07/14 04:50:36;;;;;;;5.03;1.67;;;;;;;19.71;55.35;100726.97;4099017;28;20043;-68
2023/07/14 04:52:38;;;;;;;3.63;1.88;;;;;;;19.70;55.36;100727.91;4099166;28;20493;-68
2023/07/14 04:54:41;;;;;;;3.80;1.75;;;;;;;19.69;55.26;100723.50;4098560;28;20043;-68
2023/07/14 04:56:44;;;;;;;6.05;1.70;;;;;;;19.72;55.58;100728.72;4100182;28;20501;-68
2023/07/14 04:58:47;;;;;;;8.15;1.90;;;;;;;19.78;55.39;100727.75;4100313;28;20047;-68
2023/07/14 05:00:51;;;;;;;2.88;1.50;;;;;;;19.85;55.10;100721.47;4100120;28;20043;-68
2023/07/14 05:02:54;;;;;;;2.53;1.40;;;;;;;19.82;55.08;100717.13;4100214;28;20130;-68
2023/07/14 05:05:12;;;;;;;3.80;1.83;;;;;;;19.91;55.56;100723.13;4100169;28;20039;-68
2023/07/14 05:07:19;;;;;;;6.20;2.00;;;;;;;19.99;55.12;100722.06;4099879;28;20035;-68
2023/07/14 05:09:22;;;;;;;6.55;1.90;;;;;;;20.09;54.75;100724.50;4100166;28;20054;-68
2023/07/14 05:11:25;;;;;;;3.80;1.85;;;;;;;20.10;54.62;100727.13;4100526;28;20051;-68
2023/07/14 05:13:28;;;;;;;6.10;1.85;;;;;;;20.10;54.92;100724.47;4100081;28;20407;-68
2023/07/14 05:15:31;;;;;;;3.47;1.63;;;;;;;20.17;54.61;100720.81;4098871;29;20043;-68
2023/07/14 05:17:36;;;;;;;4.35;1.75;;;;;;;20.22;54.62;100713.66;4099743;28;20086;-68
2023/07/14 05:19:39;;;;;;;8.43;1.90;;;;;;;20.31;54.04;100717.00;4099990;28;20223;-68
2023/07/14 05:21:42;;;;;;;6.80;1.70;;;;;;;20.34;53.60;100717.81;4082797;29;20047;-68
2023/07/14 05:23:44;;;;;;;4.43;1.83;;;;;;;20.34;53.45;100716.91;4114693;28;20129;-69
2023/07/14 05:25:46;;;;;;;3.30;1.70;;;;;;;20.37;53.64;100722.13;4100066;28;20046;-68
2023/07/14 05:27:49;;;;;;;4.82;1.55;;;;;;;20.46;53.48;100721.06;4098506;29;20082;-68
2023/07/14 05:29:53;;;;;;;2.97;1.80;;;;;;;20.52;53.26;100719.16;4098815;29;20047;-68
2023/07/14 05:31:57;;;;;;;4.22;1.85;;;;;;;20.53;53.20;100712.09;4099871;28;20524;-68
2023/07/14 05:34:01;;;;;;;4.68;1.67;;;;;;;20.56;53.68;100710.25;4098584;29;20047;-68
2023/07/14 05:36:04;;;;;;;7.47;2.13;;;;;;;20.62;53.82;100705.72;4099914;28;20071;-68
2023/07/14 05:38:06;;;;;;;3.70;1.63;;;;;;;20.67;53.46;100706.53;4098350;29;20091;-68
2023/07/14 05:40:12;;;;;;;3.90;1.77;;;;;;;20.72;53.49;100702.88;4099749;28;20126;-68
2023/07/14 05:42:15;;;;;;;4.68;1.48;;;;;;;20.79;53.64;100700.06;4098432;28;20058;-68
2023/07/14 05:44:18;;;;;;;5.03;1.92;;;;;;;20.71;53.51;100700.28;4099681;28;20050;-68
2023/07/14 05:46:21;;;;;;;7.97;1.92;;;;;;;20.72;53.97;100702.00;4099581;28;20129;-68
2023/07/14 05:48:24;;;;;;;5.43;2.03;;;;;;;20.78;53.79;100701.88;4099567;28;20079;-68
2023/07/14 05:50:28;;;;;;;4.45;1.90;;;;;;;20.88;53.57;100703.38;4099567;28;20039;-68
2023/07/14 05:52:31;;;;;;;11.30;2.83;;;;;;;20.87;53.04;100700.78;4099624;28;20051;-68
2023/07/14 05:54:38;;;;;;;23.02;3.22;;;;;;;20.93;52.90;100693.53;4098454;29;20046;-68
2023/07/14 05:56:40;;;;;;;14.35;2.70;;;;;;;20.98;52.89;100701.34;4099448;28;20043;-68
2023/07/14 05:58:43;;;;;;;20.17;3.53;;;;;;;20.96;52.64;100707.59;4099580;28;20039;-68
2023/07/14 06:00:47;;;;;;;21.67;3.10;;;;;;;20.90;52.54;100696.25;4099458;28;20466;-68
2023/07/14 06:02:50;;;;;;;16.52;3.65;;;;;;;20.95;52.80;100692.66;4098248;29;20138;-68
2023/07/14 06:04:53;;;;;;;15.05;3.35;;;;;;;21.05;52.59;100692.34;4098333;29;20542;-68
2023/07/14 06:06:58;;;;;;;18.48;3.00;;;;;;;21.17;52.51;100688.53;4102230;28;20039;-68
2023/07/14 06:09:01;;;;;;;20.17;3.35;;;;;;;21.25;52.37;100686.56;4102790;28;20151;-68
2023/07/14 06:11:05;;;;;;;18.63;3.22;;;;;;;21.28;52.06;100681.19;4102744;28;20407;-68
2023/07/14 06:13:08;;;;;;;19.90;3.30;;;;;;;21.38;51.15;100676.53;4102676;28;20043;-68
2023/07/14 06:15:11;;;;;;;14.82;3.80;;;;;;;21.32;50.99;100674.06;4101641;29;20051;-68
2023/07/14 06:17:14;;;;;;;13.75;3.08;;;;;;;21.32;50.90;100686.38;4101312;29;20051;-69
2023/07/14 06:19:17;;;;;;;13.48;2.53;;;;;;;21.35;51.13;100676.63;4102852;28;20139;-68
2023/07/14 06:21:20;;;;;;;17.67;2.95;;;;;;;21.37;51.30;100676.56;4102629;28;20047;-68
2023/07/14 06:23:26;;;;;;;9.25;2.45;;;;;;;21.41;51.25;100678.22;4102663;28;20484;-69
2023/07/14 06:25:29;;;;;;;19.40;3.63;;;;;;;21.46;50.72;100678.94;4102621;28;20492;-68
2023/07/14 06:27:33;;;;;;;11.07;2.92;;;;;;;21.43;50.41;100668.47;4102223;28;20126;-69
2023/07/14 06:29:36;;;;;;;18.85;3.85;;;;;;;21.47;51.29;100670.13;4101250;29;20035;-68
2023/07/14 06:31:39;;;;;;;11.70;3.30;;;;;;;21.52;51.43;100668.22;4101203;28;20082;-69
2023/07/14 06:33:42;;;;;;;10.88;2.80;;;;;;;21.56;51.24;100661.94;4102431;28;20403;-69
2023/07/14 06:35:45;;;;;;;15.25;3.45;;;;;;;21.59;50.95;100668.94;4102440;28;20098;-69
2023/07/14 06:37:48;;;;;;;11.02;3.03;;;;;;;21.64;51.85;100661.75;4102145;28;20496;-69
2023/07/14 06:39:52;;;;;;;12.00;2.75;;;;;;;21.69;52.22;100659.81;4102367;28;20054;-69
2023/07/14 06:41:54;;;;;;;15.10;2.75;;;;;;;21.74;51.92;100670.28;4102352;28;20103;-69
2023/07/14 06:44:02;;;;;;;9.43;2.55;;;;;;;21.76;51.62;100665.81;4101164;29;20051;-68
2023/07/14 06:46:25;;;;;;;11.47;2.53;;;;;;;21.77;51.73;100665.78;4102065;29;20043;-69
2023/07/14 06:48:29;;;;;;;12.07;2.42;;;;;;;21.84;51.68;100671.72;4102156;28;20043;-68
2023/07/14 06:50:32;;;;;;;14.50;2.70;;;;;;;21.89;51.40;100661.91;4102619;28;20078;-68
2023/07/14 06:52:37;;;;;;;11.32;3.08;;;;;;;22.04;50.90;100659.69;4118186;28;20049;-69
2023/07/14 06:54:40;;;;;;;9.73;2.55;;;;;;;22.13;50.49;100664.72;4100988;29;20039;-69
2023/07/14 06:56:46;;;;;;;7.70;2.65;;;;;;;22.18;49.58;100667.22;4117869;28;20515;-69
2023/07/14 06:58:48;;;;;;;15.35;3.35;;;;;;;22.29;49.22;100665.97;4100938;29;20513;-68
2023/07/14 07:00:50;;;;;;;9.27;2.30;;;;;;;22.42;48.71;100666.47;4100686;28;20142;-69
2023/07/14 07:02:53;;;;;;;9.23;2.40;;;;;;;22.62;47.17;100655.25;4117890;28;20078;-69
2023/07/14 07:04:56;;;;;;;10.20;2.80;;;;;;;22.78;46.21;100662.66;4117863;28;20043;-68
2023/07/14 07:06:58;;;;;;;9.63;2.75;;;;;;;22.84;45.58;100658.03;4117641;28;20043;-69
2023/07/14 07:09:01;;;;;;;6.10;2.47;;;;;;;22.87;46.15;100666.78;4117716;28;20031;-69
2023/07/14 07:11:05;;;;;;;5.75;2.10;;;;;;;22.94;46.44;100655.97;4100563;28;20454;-69
2023/07/14 07:13:10;;;;;;;4.82;2.15;;;;;;;22.97;46.07;100650.53;4100703;29;20046;-69
2023/07/14 07:15:13;;;;;;;5.22;2.42;;;;;;;22.95;46.12;100654.16;4100695;29;20445;-68
2023/07/14 07:17:16;;;;;;;11.18;2.28;;;;;;;23.02;45.94;100651.22;4116833;28;20054;-69
2023/07/14 07:19:18;;;;;;;4.93;2.17;;;;;;;23.15;46.93;100651.72;4100594;29;20046;-69
2023/07/14 07:21:22;;;;;;;4.78;1.73;;;;;;;23.26;45.15;100651.34;4117699;28;20101;-69
2023/07/14 07:23:25;;;;;;;4.00;1.70;;;;;;;23.33;43.78;100649.31;4117690;28;20038;-69
2023/07/14 07:25:28;;;;;;;5.03;1.83;;;;;;;23.43;42.82;100642.75;4117693;28;20043;-69
2023/07/14 07:27:31;;;;;;;4.43;2.00;;;;;;;23.64;44.17;100649.09;4100266;29;20155;-69
2023/07/14 07:29:35;;;;;;;5.63;2.00;;;;;;;23.70;44.61;100646.19;4117484;28;20043;-69
2023/07/14 07:31:38;;;;;;;5.68;1.85;;;;;;;23.61;42.71;100637.69;4117413;28;20404;-69
2023/07/14 07:33:41;;;;;;;5.95;1.92;;;;;;;23.58;42.92;100632.50;4117550;28;20062;-69
2023/07/14 07:35:45;;;;;;;6.47;1.83;;;;;;;23.48;44.05;100632.88;4117531;28;20106;-69
2023/07/14 07:37:48;;;;;;;5.75;1.90;;;;;;;23.40;44.64;100631.41;4117223;28;20035;-69
2023/07/14 07:39:53;;;;;;;9.02;2.15;;;;;;;23.43;44.21;100628.66;4117498;28;20066;-69
2023/07/14 07:41:56;;;;;;;7.30;2.28;;;;;;;23.54;44.50;100629.13;4117393;28;20054;-69
2023/07/14 07:43:59;;;;;;;10.48;2.42;;;;;;;23.73;42.28;100621.34;4100294;29;20413;-69
2023/07/14 07:46:03;;;;;;;7.38;2.20;;;;;;;23.73;43.61;100626.63;4100053;28;20079;-69
2023/07/14 07:48:06;;;;;;;7.60;2.15;;;;;;;23.78;43.59;100623.81;4100017;29;20043;-68
2023/07/14 07:50:08;;;;;;;5.93;1.90;;;;;;;23.94;44.17;100624.13;4117359;28;20051;-69
2023/07/14 07:52:12;;;;;;;5.07;2.28;;;;;;;24.01;43.83;100628.25;4117067;28;20045;-69
2023/07/14 07:54:15;;;;;;;4.87;1.93;;;;;;;24.07;43.52;100622.69;4117225;28;20133;-69
2023/07/14 07:56:18;;;;;;;5.75;2.15;;;;;;;24.19;43.19;100621.34;4117120;28;20314;-69
2023/07/14 07:58:24;;;;;;;6.00;1.98;;;;;;;24.25;43.43;100615.78;4117177;28;20101;-69
2023/07/14 08:00:27;;;;;;;8.25;2.92;;;;;;;24.32;43.70;100619.91;4117110;28;20081;-69
2023/07/14 08:02:31;;;;;;;4.40;1.60;;;;;;;24.36;42.82;100612.72;4117492;28;20056;-69
2023/07/14 08:04:34;;;;;;;;;;;;;;;24.35;42.27;100617.13;4117514;28;20105;-68
2023/07/14 08:06:37;;;;;;;6.97;2.75;;;;;;;24.46;42.32;100614.06;4099592;29;19930;-69
2023/07/14 08:08:41;;;;;;;7.43;2.20;;;;;;;24.53;41.24;100606.69;4099702;29;20074;-69
2023/07/14 08:10:46;;;;;;;;;;;;;;;24.55;41.38;100612.81;4117361;28;20062;-69
2023/07/14 08:12:49;;;;;;;7.25;2.15;;;;;;;24.68;41.82;100606.06;4117019;28;20303;-69
2023/07/14 08:14:53;;;;;;;5.30;2.47;;;;;;;24.74;41.73;100605.81;4117001;28;20234;-69
2023/07/14 08:16:56;;;;;;;7.65;2.10;;;;;;;24.86;41.27;100608.88;4116679;28;20090;-69
2023/07/14 08:19:01;;;;;;;4.15;1.90;;;;;;;24.92;41.53;100596.16;4099691;29;20051;-69
2023/07/14 08:21:05;;;;;;;5.55;1.85;;;;;;;25.12;41.14;100597.09;4116849;28;20058;-69
2023/07/14 08:23:13;;;;;;;8.93;2.55;;;;;;;25.13;41.04;100597.97;4099770;29;20531;-69
2023/07/14 08:25:16;;;;;;;5.43;1.98;;;;;;;25.09;40.80;100590.13;4099591;29;20047;-69
2023/07/14 08:27:19;;;;;;;3.08;1.52;;;;;;;25.25;39.99;100600.09;4116445;28;20412;-69
2023/07/14 08:29:22;;;;;;;7.45;2.20;;;;;;;25.28;39.03;100594.63;4115567;28;20129;-70
2023/07/14 08:31:25;;;;;;;4.82;1.90;;;;;;;25.34;39.26;100597.03;4099429;28;20082;-70
2023/07/14 08:33:28;;;;;;;5.22;2.17;;;;;;;25.38;39.21;100595.97;4099515;29;20091;-70
2023/07/14 08:35:33;;;;;;;6.70;2.53;;;;;;;25.38;39.30;100595.97;4099422;29;20142;-69
2023/07/14 08:37:35;;;;;;;;;;;;;;;25.34;39.30;100589.03;4117082;28;20070;-70
2023/07/14 08:39:39;;;;;;;5.30;1.90;;;;;;;25.46;38.73;100587.63;4099390;29;19922;-70
2023/07/14 08:41:46;;;;;;;4.88;1.90;;;;;;;25.57;39.19;100582.66;4116606;28;20078;-69
2023/07/14 08:44:04;;;;;;;7.28;2.60;;;;;;;25.68;38.32;100590.16;4116413;28;20046;-70
2023/07/14 08:46:14;;;;;;;7.88;2.40;;;;;;;25.71;37.64;100584.66;4116463;28;20515;-70
2023/07/14 08:48:25;;;;;;;6.78;2.33;;;;;;;25.64;38.10;100583.22;4083379;29;20098;-69
2023/07/14 08:50:30;;;;;;;4.60;1.90;;;;;;;25.69;38.36;100583.03;4116104;28;20039;-68
2023/07/14 08:52:35;;;;;;;;;;;;;;;25.75;38.23;100580.09;4116782;28;20484;-70
2023/07/14 08:54:45;;;;;;;5.57;2.58;;;;;;;25.84;37.71;100584.09;4116784;28;20280;-69
2023/07/14 08:56:50;;;;;;;4.47;2.10;;;;;;;25.85;37.77;100585.84;4116030;28;20049;-70
2023/07/14 08:58:53;;;;;;;10.90;2.78;;;;;;;26.06;37.85;100584.81;4116225;28;20038;-69
2023/07/14 09:01:08;;;;;;;7.47;2.00;;;;;;;26.03;36.77;100587.63;4116124;28;20042;-70
2023/07/14 09:03:19;;;;;;;3.65;1.92;;;;;;;26.08;36.32;100584.75;4116203;28;20054;-70
2023/07/14 09:05:26;;;;;;;2.95;1.40;;;;;;;26.21;36.24;100585.91;4116199;28;20039;-68
2023/07/14 09:07:40;;;;;;;6.90;1.75;;;;;;;26.29;35.85;100578.38;4115945;28;20122;-69
2023/07/14 09:09:42;;;;;;;5.68;2.05;;;;;;;26.23;35.21;100577.81;4116146;28;20050;-69
2023/07/14 09:11:54;;;;;;;10.60;2.25;;;;;;;26.11;34.92;100580.16;4116016;28;20057;-69
2023/07/14 09:14:09;;;;;;;3.72;1.77;;;;;;;26.05;35.56;100580.44;4098916;29;20043;-68
2023/07/14 09:16:15;;;;;;;3.13;1.55;;;;;;;26.07;35.75;100577.72;4115956;28;20050;-69
2023/07/14 09:18:39;;;;;;;3.95;1.90;;;;;;;26.17;36.53;100575.44;4115858;28;20059;-69
2023/07/14 09:20:55;;;;;;;3.15;1.70;;;;;;;26.09;35.29;100582.03;4115861;28;20074;-69
2023/07/14 09:23:14;;;;;;;3.72;1.63;;;;;;;26.22;35.67;100576.09;4098737;29;20055;-69
2023/07/14 09:25:24;;;;;;;3.42;1.70;;;;;;;26.10;35.13;100570.41;4115936;28;20058;-69
2023/07/14 09:27:30;;;;;;;3.83;1.65;;;;;;;26.18;34.51;100564.72;4115592;28;20101;-69
2023/07/14 09:29:36;;;;;;;5.70;1.80;;;;;;;26.17;34.97;100564.78;4115756;28;20061;-69
2023/07/14 09:31:44;;;;;;;5.07;1.90;;;;;;;26.16;35.05;100565.75;4115762;28;20130;-69
2023/07/14 09:33:52;;;;;;;3.97;1.60;;;;;;;26.26;35.46;100562.53;4115806;28;20042;-69
2023/07/14 09:35:55;;;;;;;4.65;1.60;;;;;;;26.44;35.70;100558.06;4098564;29;20583;-70
2023/07/14 09:38:05;;;;;;;4.43;1.58;;;;;;;26.61;35.27;100551.03;4115462;28;20047;-69
2023/07/14 09:40:18;;;;;;;2.83;1.55;;;;;;;26.68;34.08;100551.59;4098334;28;20083;-69
2023/07/14 09:42:26;;;;;;;2.40;1.27;;;;;;;26.67;33.73;100545.38;4115842;28;20518;-69
2023/07/14 09:44:30;;;;;;;4.00;1.58;;;;;;;26.77;34.30;100541.31;4115700;28;20492;-70
2023/07/14 09:46:39;;;;;;;2.65;1.60;;;;;;;26.89;34.32;100544.28;4115442;28;20066;-69